Weather at Portland Downtown Heliport

Public forecast

Using degrees Fahrenheit for public forecast. Weather courtesy of forecast.io.

Closest aviation weather report (METAR) to Portland Downtown Heliport

Closest report is Portland International Airport, 4.9 nm (9.1 km) NE. Retrieved 2021/10/20 07:53 UTC (58 minutes ago):

KPDX 200753Z 11006KT 7SM -RA OVC065 13/09 A2967 RMK AO2 RAB07 SLP047 P0003 T01280094 401610044

Closest aviation forecast (TAF) to Portland Downtown Heliport

Closest forecast is Portland International Airport, 4.9 nm (9.1 km) NE. Retrieved 2021/10/20 06:22 UTC (2 hours ago):

TAF KPDX 200520Z 2006/2106 14006KT P6SM OVC120 FM200700 VRB04KT P6SM -RA OVC080 FM201200 11009KT P6SM VCSH OVC045 WS020/18035KT FM201300 19019G30KT P6SM -SHRA OVC035 WS020/19040KT FM201500 19013G23KT P6SM -SHRA OVC035 FM201800 19012KT P6SM VCSH BKN040